createdAt,value
2022-08-12T00:00:16.877Z,16.87
2022-08-12T00:03:02.424Z,16.86
2022-08-12T00:05:59.724Z,16.87
2022-08-12T00:08:54.446Z,16.68
2022-08-12T00:11:40.626Z,16.61
2022-08-12T00:14:26.054Z,16.64
2022-08-12T00:17:11.408Z,16.70
2022-08-12T00:19:56.654Z,16.67
2022-08-12T00:22:42.324Z,16.68
2022-08-12T00:26:00.418Z,16.75
2022-08-12T00:28:35.454Z,16.78
2022-08-12T00:31:21.374Z,16.77
2022-08-12T00:34:06.735Z,16.79
2022-08-12T00:36:52.063Z,16.72
2022-08-12T00:39:37.563Z,16.70
2022-08-12T00:42:10.989Z,16.69
2022-08-12T00:44:41.026Z,16.69
2022-08-12T00:47:25.278Z,16.71
2022-08-12T00:49:54.598Z,16.65
2022-08-12T00:52:21.424Z,16.58
2022-08-12T00:54:59.202Z,16.54
2022-08-12T00:57:37.168Z,16.50
2022-08-12T01:00:18.548Z,16.44
2022-08-12T01:02:51.576Z,16.46
2022-08-12T01:05:40.298Z,16.44
2022-08-12T01:08:26.754Z,16.39
2022-08-12T01:11:13.789Z,16.30
2022-08-12T01:13:49.644Z,16.30
2022-08-12T01:16:22.525Z,16.27
2022-08-12T01:18:51.222Z,16.20
2022-08-12T01:22:04.743Z,16.14
2022-08-12T01:24:54.706Z,16.08
2022-08-12T01:27:23.562Z,16.05
2022-08-12T01:29:54.027Z,16.03
2022-08-12T01:32:23.793Z,15.97
2022-08-12T01:35:01.532Z,15.95
2022-08-12T01:37:32.984Z,15.91
2022-08-12T01:40:34.314Z,15.90
2022-08-12T01:42:50.414Z,15.82
2022-08-12T01:45:24.715Z,15.71
2022-08-12T01:48:13.343Z,15.63
2022-08-12T01:52:12.656Z,15.66
2022-08-12T01:54:20.518Z,15.67
2022-08-12T01:57:58.043Z,15.67
2022-08-12T02:00:20.198Z,15.69
2022-08-12T02:03:17.238Z,15.73
2022-08-12T02:06:36.149Z,15.65
2022-08-12T02:09:23.468Z,15.64
2022-08-12T02:12:13.137Z,15.61
2022-08-12T02:15:13.097Z,15.62
2022-08-12T02:17:56.852Z,15.53
2022-08-12T02:20:53.196Z,15.29
2022-08-12T02:23:26.981Z,15.21
2022-08-12T02:25:58.146Z,15.15
2022-08-12T02:28:25.118Z,15.21
2022-08-12T02:30:52.475Z,15.25
2022-08-12T02:33:21.081Z,15.28
2022-08-12T02:35:48.653Z,15.30
2022-08-12T02:38:17.549Z,15.26
2022-08-12T02:40:51.935Z,15.26
2022-08-12T02:43:35.820Z,15.21
2022-08-12T02:46:15.057Z,15.22
2022-08-12T02:49:03.476Z,15.20
2022-08-12T02:51:34.739Z,15.17
2022-08-12T02:54:06.581Z,15.17
2022-08-12T02:56:37.677Z,15.12
2022-08-12T02:59:05.177Z,15.12
2022-08-12T03:01:35.312Z,15.08
2022-08-12T03:04:07.206Z,15.03
2022-08-12T03:06:57.874Z,14.98
2022-08-12T03:09:26.659Z,15.00
2022-08-12T03:12:05.210Z,14.95
2022-08-12T03:14:35.791Z,14.89
2022-08-12T03:17:33.226Z,14.85
2022-08-12T03:20:09.998Z,14.84
2022-08-12T03:22:42.708Z,14.85
2022-08-12T03:25:17.036Z,14.83
2022-08-12T03:27:49.876Z,14.62
2022-08-12T03:30:20.169Z,14.49
2022-08-12T03:32:51.651Z,14.36
2022-08-12T03:35:40.190Z,14.32
2022-08-12T03:38:12.448Z,14.38
2022-08-12T03:41:22.934Z,14.43
2022-08-12T03:44:18.119Z,14.47
2022-08-12T03:47:08.925Z,14.41
2022-08-12T03:49:54.424Z,14.48
2022-08-12T03:52:39.963Z,14.50
2022-08-12T03:55:25.613Z,14.56
2022-08-12T03:58:11.177Z,14.48
2022-08-12T04:00:38.609Z,14.52
2022-08-12T04:03:25.227Z,14.55
2022-08-12T04:05:55.736Z,14.55
2022-08-12T04:08:26.058Z,14.53
2022-08-12T04:11:12.998Z,14.52
2022-08-12T04:13:41.085Z,14.57
2022-08-12T04:16:10.769Z,14.55
2022-08-12T04:18:38.812Z,14.54
2022-08-12T04:21:11.208Z,14.60
2022-08-12T04:23:38.790Z,14.60
2022-08-12T04:26:06.756Z,14.59
2022-08-12T04:28:33.701Z,14.53
2022-08-12T04:31:01.310Z,14.53
2022-08-12T04:33:28.068Z,14.56
2022-08-12T04:35:55.431Z,14.61
2022-08-12T04:38:24.055Z,14.72
2022-08-12T04:40:51.839Z,14.77
2022-08-12T04:43:54.506Z,14.83
2022-08-12T04:46:06.539Z,14.83
2022-08-12T04:48:33.222Z,14.85
2022-08-12T04:51:00.252Z,14.98
2022-08-12T04:53:27.647Z,15.04
2022-08-12T04:55:54.975Z,15.02
2022-08-12T04:58:29.675Z,15.10
2022-08-12T05:00:56.976Z,15.17
2022-08-12T05:03:26.535Z,15.22
2022-08-12T05:05:53.498Z,15.24
2022-08-12T05:08:21.354Z,15.26
2022-08-12T05:10:48.387Z,15.33
2022-08-12T05:13:23.655Z,15.30
2022-08-12T05:16:02.497Z,15.37
2022-08-12T05:18:45.805Z,15.31
2022-08-12T05:21:14.440Z,15.32
2022-08-12T05:23:41.101Z,15.37
2022-08-12T05:26:07.899Z,15.43
2022-08-12T05:28:35.055Z,15.46
2022-08-12T05:31:02.141Z,15.55
2022-08-12T05:33:37.649Z,15.67
2022-08-12T05:36:07.703Z,15.84
2022-08-12T05:38:53.727Z,15.89
2022-08-12T05:41:20.730Z,15.94
2022-08-12T05:43:55.866Z,15.97
2022-08-12T05:46:24.341Z,16.07
2022-08-12T05:48:52.291Z,16.24
2022-08-12T05:51:18.976Z,16.43
2022-08-12T05:53:45.632Z,16.48
2022-08-12T05:56:30.777Z,16.52
2022-08-12T05:58:59.627Z,16.69
2022-08-12T06:02:10.084Z,16.85
2022-08-12T06:04:14.338Z,16.92
2022-08-12T06:06:43.857Z,16.89
2022-08-12T06:09:11.364Z,16.96
2022-08-12T06:11:42.111Z,16.89
2022-08-12T06:14:28.188Z,16.81
2022-08-12T06:16:57.676Z,16.79
2022-08-12T06:19:25.566Z,16.87
2022-08-12T06:22:12.618Z,16.90
2022-08-12T06:24:39.458Z,17.00
2022-08-12T06:27:06.140Z,17.16
2022-08-12T06:30:07.449Z,17.29
2022-08-12T06:32:21.570Z,17.32
2022-08-12T06:35:23.779Z,17.48
2022-08-12T06:37:50.356Z,17.50
2022-08-12T06:40:41.970Z,17.62
2022-08-12T06:43:08.774Z,17.86
2022-08-12T06:45:46.772Z,18.04
2022-08-12T06:48:14.138Z,18.16
2022-08-12T06:50:42.379Z,18.12
2022-08-12T06:53:09.459Z,18.31
2022-08-12T06:55:36.303Z,18.45
2022-08-12T06:58:07.840Z,18.60
2022-08-12T07:00:37.461Z,18.87
2022-08-12T07:03:16.613Z,19.11
2022-08-12T07:05:51.040Z,19.20
2022-08-12T07:08:18.397Z,19.37
2022-08-12T07:10:57.442Z,19.36
2022-08-12T07:13:25.135Z,19.54
2022-08-12T07:15:56.573Z,19.64
2022-08-12T07:18:29.918Z,19.67
2022-08-12T07:20:57.172Z,19.66
2022-08-12T07:23:24.521Z,19.65
2022-08-12T07:25:55.179Z,19.45
2022-08-12T07:28:28.150Z,19.51
2022-08-12T07:30:56.071Z,19.57
2022-08-12T07:33:25.566Z,19.65
2022-08-12T07:35:53.981Z,19.67
2022-08-12T07:38:38.731Z,19.78
2022-08-12T07:41:28.435Z,19.91
2022-08-12T07:44:02.481Z,19.92
2022-08-12T07:46:37.016Z,19.92
2022-08-12T07:49:09.755Z,19.90
2022-08-12T07:51:37.343Z,20.04
2022-08-12T07:54:09.334Z,20.05
2022-08-12T07:56:38.411Z,20.10
2022-08-12T07:59:08.848Z,20.20
2022-08-12T08:01:37.882Z,20.22
2022-08-12T08:04:23.974Z,20.34
2022-08-12T08:06:50.883Z,20.30
2022-08-12T08:09:21.257Z,20.36
2022-08-12T08:12:07.263Z,20.41
2022-08-12T08:14:34.132Z,20.53
2022-08-12T08:17:03.461Z,20.52
2022-08-12T08:19:33.603Z,20.48
2022-08-12T08:22:24.903Z,20.51
2022-08-12T08:25:34.534Z,20.69
2022-08-12T08:27:54.388Z,20.76
2022-08-12T08:30:21.119Z,20.84
2022-08-12T08:32:48.709Z,20.87
2022-08-12T08:35:15.639Z,21.02
2022-08-12T08:37:47.022Z,21.09
2022-08-12T08:40:33.578Z,21.24
2022-08-12T08:43:00.277Z,21.24
2022-08-12T08:45:28.398Z,21.40
2022-08-12T08:47:59.654Z,21.55
2022-08-12T08:50:27.304Z,21.58
2022-08-12T08:52:54.168Z,21.64
2022-08-12T08:55:27.420Z,21.72
2022-08-12T08:58:00.265Z,21.82
2022-08-12T09:00:27.375Z,22.01
2022-08-12T09:02:59.361Z,22.18
2022-08-12T09:05:27.849Z,22.34
2022-08-12T09:08:12.136Z,22.43
2022-08-12T09:10:45.144Z,22.46
2022-08-12T09:14:10.943Z,22.47
2022-08-12T09:16:23.254Z,22.64
2022-08-12T09:18:52.699Z,22.79
2022-08-12T09:21:22.947Z,22.80
2022-08-12T09:23:57.601Z,22.85
2022-08-12T09:26:29.772Z,22.74
2022-08-12T09:28:57.748Z,22.87
2022-08-12T09:32:06.639Z,23.01
2022-08-12T09:34:29.010Z,23.17
2022-08-12T09:37:02.433Z,23.12
2022-08-12T09:40:05.288Z,23.26
2022-08-12T09:42:55.429Z,23.05
2022-08-12T09:46:06.524Z,23.17
2022-08-12T09:48:20.458Z,23.32
2022-08-12T09:50:51.966Z,23.41
2022-08-12T09:53:36.540Z,23.51
2022-08-12T09:56:59.581Z,23.63
2022-08-12T09:58:58.540Z,23.76
2022-08-12T10:01:35.592Z,23.75
2022-08-12T10:04:14.979Z,23.71
2022-08-12T10:06:55.268Z,23.87
2022-08-12T10:09:28.494Z,23.84
2022-08-12T10:12:33.255Z,23.84
2022-08-12T10:16:01.605Z,23.91
2022-08-12T10:18:06.913Z,23.99
2022-08-12T10:20:34.418Z,23.96
2022-08-12T10:23:01.843Z,24.01
2022-08-12T10:26:34.915Z,23.94
2022-08-12T10:29:02.752Z,23.81
2022-08-12T10:31:47.450Z,23.77
2022-08-12T10:34:25.825Z,23.88
2022-08-12T10:37:22.987Z,23.89
2022-08-12T10:40:08.218Z,23.98
2022-08-12T10:42:57.827Z,24.01
2022-08-12T10:45:27.400Z,24.07
2022-08-12T10:48:07.239Z,24.15
2022-08-12T10:51:01.740Z,24.06
2022-08-12T10:53:45.003Z,24.01
2022-08-12T10:56:17.741Z,24.00
2022-08-12T10:58:46.218Z,24.06
2022-08-12T11:01:49.791Z,24.02
2022-08-12T11:04:27.053Z,23.93
2022-08-12T11:07:05.631Z,24.03
2022-08-12T11:10:00.072Z,24.05
2022-08-12T11:12:57.155Z,24.08
2022-08-12T11:15:20.961Z,24.21
2022-08-12T11:17:53.546Z,24.26
2022-08-12T11:20:30.567Z,24.21
2022-08-12T11:22:59.945Z,24.21
2022-08-12T11:25:55.582Z,24.30
2022-08-12T11:28:33.487Z,24.34
2022-08-12T11:31:02.018Z,24.32
2022-08-12T11:34:06.825Z,24.29
2022-08-12T11:36:16.439Z,24.37
2022-08-12T11:38:43.283Z,24.41
2022-08-12T11:41:28.066Z,24.37
2022-08-12T11:44:35.608Z,24.43
2022-08-12T11:46:52.389Z,24.42
2022-08-12T11:49:30.541Z,24.48
2022-08-12T11:51:59.107Z,24.37
2022-08-12T11:54:25.802Z,24.47
2022-08-12T11:56:59.904Z,24.54
2022-08-12T12:02:19.261Z,24.58
2022-08-12T12:04:52.645Z,24.54
2022-08-12T12:08:36.154Z,24.63
2022-08-12T12:10:13.189Z,24.67
2022-08-12T12:12:41.495Z,24.73
2022-08-12T12:15:16.614Z,24.65
2022-08-12T12:17:55.741Z,24.61
2022-08-12T12:20:25.974Z,24.65
2022-08-12T12:22:54.442Z,24.57
2022-08-12T12:25:21.382Z,24.36
2022-08-12T12:28:07.784Z,24.40
2022-08-12T12:30:55.105Z,24.38
2022-08-12T12:33:22.473Z,24.40
2022-08-12T12:36:17.102Z,24.32
2022-08-12T12:38:36.111Z,24.31
2022-08-12T12:41:14.402Z,24.18
2022-08-12T12:44:04.178Z,24.23
2022-08-12T12:46:30.283Z,24.16
2022-08-12T12:48:57.179Z,24.19
2022-08-12T12:51:56.433Z,24.08
2022-08-12T12:54:11.191Z,23.92
2022-08-12T12:56:43.031Z,23.96
2022-08-12T12:59:35.011Z,23.98
2022-08-12T13:02:02.075Z,23.90
2022-08-12T13:04:35.065Z,23.84
2022-08-12T13:07:05.962Z,23.78
2022-08-12T13:09:36.212Z,23.66
2022-08-12T13:12:05.229Z,23.64
2022-08-12T13:14:39.528Z,23.58
2022-08-12T13:17:09.680Z,23.52
2022-08-12T13:19:43.476Z,23.61
2022-08-12T13:22:18.475Z,23.68
2022-08-12T13:24:46.920Z,23.83
2022-08-12T13:27:21.481Z,23.91
2022-08-12T13:29:48.891Z,24.04
2022-08-12T13:32:28.401Z,24.17
2022-08-12T13:35:04.012Z,24.29
2022-08-12T13:37:43.901Z,24.39
2022-08-12T13:40:18.354Z,24.54
2022-08-12T13:42:46.351Z,24.54
2022-08-12T13:45:13.612Z,24.57
2022-08-12T13:47:57.878Z,24.55
2022-08-12T13:50:33.766Z,24.55
2022-08-12T13:53:06.271Z,24.48
2022-08-12T13:56:01.482Z,24.48
2022-08-12T13:58:30.967Z,24.57
2022-08-12T14:01:05.383Z,24.55
2022-08-12T14:03:51.225Z,24.51
2022-08-12T14:06:18.925Z,24.42
2022-08-12T14:08:49.857Z,24.20
2022-08-12T14:11:19.110Z,24.21
2022-08-12T14:14:03.349Z,24.25
2022-08-12T14:16:48.623Z,24.31
2022-08-12T14:19:24.503Z,24.35
2022-08-12T14:21:59.026Z,24.39
2022-08-12T14:24:27.324Z,24.39
2022-08-12T14:27:02.090Z,24.39
2022-08-12T14:30:03.901Z,24.37
2022-08-12T14:32:17.684Z,24.32
2022-08-12T14:34:47.047Z,24.26
2022-08-12T14:37:57.324Z,24.34
2022-08-12T14:40:01.318Z,24.44
2022-08-12T14:42:28.472Z,24.38
2022-08-12T14:45:01.305Z,24.36
2022-08-12T14:47:29.327Z,24.25
2022-08-12T14:50:37.729Z,24.31
2022-08-12T14:54:55.931Z,24.34
2022-08-12T14:58:31.836Z,24.21
2022-08-12T15:01:19.760Z,23.99
2022-08-12T15:03:56.866Z,23.93
2022-08-12T15:06:44.061Z,24.06
2022-08-12T15:09:14.136Z,24.16
2022-08-12T15:11:54.418Z,24.18
2022-08-12T15:14:25.011Z,24.15
2022-08-12T15:16:51.674Z,24.09
2022-08-12T15:20:31.456Z,24.10
2022-08-12T15:22:39.458Z,24.10
2022-08-12T15:24:52.826Z,24.28
2022-08-12T15:27:22.116Z,24.48
2022-08-12T15:29:52.151Z,24.75
2022-08-12T15:32:31.727Z,24.94
2022-08-12T15:35:00.519Z,25.14
2022-08-12T15:38:09.124Z,25.05
2022-08-12T15:40:15.465Z,24.69
2022-08-12T15:42:59.575Z,24.36
2022-08-12T15:45:32.013Z,23.82
2022-08-12T15:48:04.558Z,23.45
2022-08-12T15:50:46.007Z,23.47
2022-08-12T15:53:16.951Z,23.40
2022-08-12T15:55:49.301Z,23.36
2022-08-12T15:58:18.136Z,23.41
2022-08-12T16:00:48.533Z,23.47
2022-08-12T16:03:28.631Z,23.47
2022-08-12T16:06:22.490Z,23.60
2022-08-12T16:09:00.720Z,23.52
2022-08-12T16:11:41.283Z,23.25
2022-08-12T16:14:10.451Z,22.98
2022-08-12T16:16:37.243Z,22.80
2022-08-12T16:19:19.083Z,22.61
2022-08-12T16:21:58.437Z,22.59
2022-08-12T16:24:25.982Z,22.41
2022-08-12T16:26:55.155Z,22.22
2022-08-12T16:29:38.560Z,21.98
2022-08-12T16:32:21.449Z,21.80
2022-08-12T16:34:54.656Z,21.61
2022-08-12T16:37:22.522Z,21.49
2022-08-12T16:40:04.929Z,21.19
2022-08-12T16:42:39.290Z,21.00
2022-08-12T16:45:13.798Z,20.90
2022-08-12T16:47:58.981Z,20.95
2022-08-12T16:50:30.993Z,20.94
2022-08-12T16:52:59.902Z,20.94
2022-08-12T16:55:33.973Z,20.88
2022-08-12T16:58:18.481Z,20.67
2022-08-12T17:00:58.657Z,20.54
2022-08-12T17:03:30.511Z,20.50
2022-08-12T17:05:57.385Z,20.42
2022-08-12T17:08:29.006Z,20.38
2022-08-12T17:10:56.624Z,20.43
2022-08-12T17:13:26.291Z,20.26
2022-08-12T17:16:04.891Z,19.95
2022-08-12T17:18:43.001Z,19.70
2022-08-12T17:21:19.616Z,19.55
2022-08-12T17:23:53.014Z,19.53
2022-08-12T17:26:31.141Z,19.60
2022-08-12T17:28:59.584Z,19.65
2022-08-12T17:31:59.821Z,19.66
2022-08-12T17:34:35.915Z,19.57
2022-08-12T17:37:06.322Z,19.43
2022-08-12T17:40:12.245Z,19.37
2022-08-12T17:42:32.487Z,19.30
2022-08-12T17:45:18.136Z,19.29
2022-08-12T17:48:04.750Z,19.26
2022-08-12T17:50:39.510Z,19.27
2022-08-12T17:53:08.084Z,19.15
2022-08-12T17:55:44.859Z,19.18
2022-08-12T17:58:35.630Z,19.19
2022-08-12T18:01:06.126Z,19.22
2022-08-12T18:04:04.323Z,19.17
2022-08-12T18:06:28.159Z,18.87
2022-08-12T18:08:58.679Z,18.69
2022-08-12T18:12:04.110Z,18.63
2022-08-12T18:14:33.053Z,18.66
2022-08-12T18:17:08.792Z,18.69
2022-08-12T18:20:05.588Z,18.72
2022-08-12T18:22:30.799Z,18.76
2022-08-12T18:25:04.127Z,18.67
2022-08-12T18:27:44.284Z,18.66
2022-08-12T18:30:29.148Z,18.61
2022-08-12T18:33:04.719Z,18.64
2022-08-12T18:35:47.719Z,18.65
2022-08-12T18:38:22.362Z,18.58
2022-08-12T18:41:10.257Z,18.57
2022-08-12T18:43:59.049Z,18.58
2022-08-12T18:46:37.857Z,18.57
2022-08-12T18:49:18.875Z,18.58
2022-08-12T18:51:55.314Z,18.52
2022-08-12T18:54:34.995Z,18.44
2022-08-12T18:57:19.293Z,18.34
2022-08-12T19:00:06.051Z,18.27
2022-08-12T19:02:40.436Z,18.25
2022-08-12T19:05:10.646Z,18.21
2022-08-12T19:07:50.003Z,18.24
2022-08-12T19:10:30.693Z,18.33
2022-08-12T19:13:21.268Z,18.39
2022-08-12T19:15:57.821Z,18.41
2022-08-12T19:18:29.549Z,18.39
2022-08-12T19:20:58.588Z,18.30
2022-08-12T19:23:34.874Z,18.15
2022-08-12T19:26:04.524Z,18.12
2022-08-12T19:28:36.171Z,18.10
2022-08-12T19:31:56.565Z,18.15
2022-08-12T19:38:04.494Z,18.17
2022-08-12T19:40:33.549Z,18.20
2022-08-12T19:43:18.305Z,18.17
2022-08-12T19:45:53.731Z,18.07
2022-08-12T19:48:22.799Z,18.02
2022-08-12T19:50:53.466Z,18.00
2022-08-12T19:53:22.642Z,17.95
2022-08-12T19:55:53.063Z,17.94
2022-08-12T19:58:21.184Z,17.93
2022-08-12T20:00:52.816Z,17.94
2022-08-12T20:03:39.561Z,17.92
2022-08-12T20:06:14.106Z,17.85
2022-08-12T20:08:49.065Z,17.69
2022-08-12T20:12:10.229Z,17.62
2022-08-12T20:14:09.959Z,17.39
2022-08-12T20:20:01.351Z,17.33
2022-08-12T20:22:29.974Z,17.40
2022-08-12T20:25:01.694Z,17.44
2022-08-12T20:28:04.061Z,17.46
2022-08-12T20:30:17.283Z,17.43
2022-08-12T20:32:59.048Z,17.41
2022-08-12T20:35:38.904Z,17.40
2022-08-12T20:38:26.458Z,17.39
2022-08-12T20:40:55.352Z,17.38
2022-08-12T20:43:24.022Z,17.38
2022-08-12T20:45:57.933Z,17.35
2022-08-12T20:48:28.707Z,17.39
2022-08-12T20:50:58.012Z,17.34
2022-08-12T20:53:53.967Z,17.35
2022-08-12T20:56:31.029Z,17.31
2022-08-12T20:59:01.055Z,17.30
2022-08-12T21:01:29.007Z,17.27
2022-08-12T21:04:25.378Z,17.26
2022-08-12T21:07:04.554Z,17.18
2022-08-12T21:09:47.721Z,17.13
2022-08-12T21:12:27.286Z,17.18
2022-08-12T21:15:00.755Z,17.21
2022-08-12T21:18:08.904Z,17.14
2022-08-12T21:20:32.663Z,17.12
2022-08-12T21:22:59.416Z,17.04
2022-08-12T21:25:44.108Z,17.00
2022-08-12T21:28:12.414Z,17.04
2022-08-12T21:30:54.814Z,17.03
2022-08-12T21:33:58.770Z,17.06
2022-08-12T21:36:32.299Z,17.05
2022-08-12T21:39:20.089Z,17.02
2022-08-12T21:41:52.459Z,17.03
2022-08-12T21:44:24.081Z,16.98
2022-08-12T21:47:20.165Z,16.93
2022-08-12T21:49:55.080Z,16.97
2022-08-12T21:52:34.344Z,17.02
2022-08-12T21:55:19.299Z,17.02
2022-08-12T21:57:54.841Z,17.06
2022-08-12T22:00:34.257Z,17.05
2022-08-12T22:04:03.168Z,17.05
2022-08-12T22:06:30.477Z,17.05
2022-08-12T22:09:15.757Z,17.07
2022-08-12T22:11:56.187Z,17.04
2022-08-12T22:14:28.415Z,17.03
2022-08-12T22:16:56.542Z,17.00
2022-08-12T22:19:24.351Z,16.91
2022-08-12T22:21:54.537Z,16.86
2022-08-12T22:24:27.248Z,16.81
2022-08-12T22:27:28.343Z,16.72
2022-08-12T22:30:16.805Z,16.70
2022-08-12T22:32:51.640Z,16.68
2022-08-12T22:35:55.237Z,16.69
2022-08-12T22:38:23.790Z,16.53
2022-08-12T22:41:03.382Z,16.05
2022-08-12T22:44:00.168Z,15.87
2022-08-12T22:46:53.181Z,15.88
2022-08-12T22:49:48.819Z,15.95
2022-08-12T22:52:13.372Z,15.98
2022-08-12T22:54:54.326Z,16.00
2022-08-12T22:57:49.049Z,16.01
2022-08-12T23:00:24.022Z,16.06
2022-08-12T23:02:51.607Z,16.13
2022-08-12T23:05:23.722Z,16.16
2022-08-12T23:08:17.502Z,16.12
2022-08-12T23:10:46.450Z,16.05
2022-08-12T23:13:43.072Z,15.99
2022-08-12T23:16:28.167Z,16.08
2022-08-12T23:18:57.148Z,16.17
2022-08-12T23:21:23.837Z,16.21
2022-08-12T23:24:09.613Z,16.15
2022-08-12T23:26:56.457Z,16.16
2022-08-12T23:29:29.702Z,16.18
2022-08-12T23:32:12.611Z,16.12
2022-08-12T23:35:00.065Z,16.08
2022-08-12T23:37:47.828Z,15.93
2022-08-12T23:40:18.239Z,15.75
2022-08-12T23:42:46.762Z,15.74
2022-08-12T23:45:20.121Z,15.71
2022-08-12T23:48:00.219Z,15.68
2022-08-12T23:50:33.575Z,15.67
2022-08-12T23:53:05.524Z,15.71
2022-08-12T23:55:40.630Z,15.77
2022-08-12T23:58:20.918Z,15.74
